Akimaru No20 — JK5499 — position and weather

sailwx.info

Track history (hours):
 
Tides and Currents Weather Stations Pressure Air Temp Water Temp Dewpoint Dewpoint Depression Visibility Wind Speed Wind Dir Waves Ship Positions

Akimaru No20

Last reported at 2018-Apr-22 05:57 UTC. Time now 2018-Apr-22 06:24 UTC.
Position N 35°05' E 136°52'.

Length 29 m.

Type: Tug. MMSI: 431400676.

Date/timePositionNaut miles runAvg speedWind from/ knotsBaromVisibWave heightAir tempDewpointWater temp
2018-Apr-22 05:57N 35°05' E 136°52'0 0.0
2018-Apr-22 05:21N 35°05' E 136°52'0 0.0
2018-Apr-22 04:51N 35°05' E 136°52'0 0.0
2018-Apr-22 04:27N 35°05' E 136°52'0 0.0
2018-Apr-22 03:57N 35°05' E 136°52'0 0.0
2018-Apr-22 03:27N 35°05' E 136°52'0 0.0
2018-Apr-22 02:57N 35°05' E 136°52'0 0.0
2018-Apr-22 02:27N 35°05' E 136°52'0 0.0
2018-Apr-22 01:57N 35°05' E 136°52'0 0.0
2018-Apr-22 01:27N 35°05' E 136°52'0 0.0
2018-Apr-22 00:51N 35°05' E 136°52'0 0.0
2018-Apr-22 00:27N 35°05' E 136°52'0 0.0
2018-Apr-21 23:57N 35°05' E 136°52'0 0.0
2018-Apr-21 23:27N 35°05' E 136°52'0 0.0
2018-Apr-21 22:57N 35°05' E 136°52'0 0.5
2018-Apr-21 22:30N 35°05' E 136°52'4 8.1
2018-Apr-21 22:00N 35°01' E 136°50'5 8.8
2018-Apr-21 21:29N 34°58' E 136°46'4 9.1
2018-Apr-21 21:00N 34°56' E 136°41'2 3.1
2018-Apr-21 20:30N 34°57' E 136°43'2 3.7
2018-Apr-21 20:00N 34°55' E 136°44'3 5.4
2018-Apr-21 19:30N 34°52' E 136°44'2 4.6
2018-Apr-21 19:00N 34°50' E 136°43'1 2.3
2018-Apr-21 18:30N 34°50' E 136°42'2 3.2
2018-Apr-21 17:59N 34°50' E 136°44'99 3.2
2018-Apr-20 11:10N 34°00' E 135°00'2 6.2
2018-Apr-20 10:53N 34°02' E 135°00'2 6.3
2018-Apr-20 10:30N 34°04' E 134°60'3 5.9
2018-Apr-20 10:00N 34°07' E 134°60'4 7.0
2018-Apr-20 09:30N 34°11' E 134°60'4 8.2
2018-Apr-20 08:58N 34°15' E 134°59'4 8.0
2018-Apr-20 08:30N 34°19' E 134°59'3 7.0
2018-Apr-20 08:00N 34°22' E 134°59'4 7.0
2018-Apr-20 07:30N 34°26' E 135°00'3 6.6
2018-Apr-20 07:00N 34°29' E 135°01'3 6.5
2018-Apr-20 06:30N 34°32' E 135°03'4 7.4
2018-Apr-20 06:00N 34°36' E 135°03'5 9.3
2018-Apr-20 05:30N 34°36' E 134°57'4 7.6
2018-Apr-20 04:58N 34°37' E 134°53'4 8.2
2018-Apr-20 04:29N 34°38' E 134°48'5 7.6
2018-Apr-20 03:51N 34°40' E 134°42'3 7.5
2018-Apr-20 03:30N 34°41' E 134°40'  
2018-Apr-13 22:23N 34°42' E 134°39'3 5.9
2018-Apr-13 21:57N 34°41' E 134°42'3 6.0
2018-Apr-13 21:27N 34°40' E 134°45'5 6.3
2018-Apr-13 20:43N 34°38' E 134°51'2 6.9
2018-Apr-13 20:30N 34°38' E 134°52'3 7.0
2018-Apr-13 20:00N 34°37' E 134°57'3 5.8
2018-Apr-13 19:28N 34°38' E 135°00'2 5.2
2018-Apr-13 19:00N 34°37' E 135°03'2 3.7
2018-Apr-13 18:30N 34°36' E 135°05'2 3.2
2018-Apr-13 18:00N 34°35' E 135°07'1 2.2
2018-Apr-13 17:30N 34°34' E 135°06'1 2.4
2018-Apr-13 17:00N 34°33' E 135°06'1 2.7
2018-Apr-13 16:29N 34°32' E 135°05'1 2.5
2018-Apr-13 16:00N 34°30' E 135°05'1 2.6
2018-Apr-13 15:30N 34°29' E 135°05'1 2.5
2018-Apr-13 15:00N 34°28' E 135°04'1 2.5
2018-Apr-13 14:30N 34°27' E 135°04'1 2.7
2018-Apr-13 13:59N 34°25' E 135°03'1 2.3
2018-Apr-13 13:30N 34°24' E 135°03'2 3.6
2018-Apr-13 12:59N 34°23' E 135°02'2 3.9
2018-Apr-13 12:30N 34°21' E 135°01'1 3.0
2018-Apr-13 12:00N 34°19' E 135°01'1 2.7
2018-Apr-13 11:30N 34°18' E 135°00'2 3.2
2018-Apr-13 11:00N 34°17' E 134°59'2 3.7
2018-Apr-13 10:30N 34°15' E 134°59'1 1.9
2018-Apr-13 09:59N 34°14' E 134°59'2 3.4
2018-Apr-13 09:29N 34°12' E 134°60'2 3.8
2018-Apr-13 08:58N 34°10' E 134°60'2 3.7
2018-Apr-13 08:29N 34°09' E 134°60'2 3.5
2018-Apr-13 08:00N 34°07' E 135°00'2 3.6
2018-Apr-13 07:30N 34°05' E 135°00'2 3.5
2018-Apr-13 07:00N 34°03' E 135°00'  
Track history (hours):
 
Tides and Currents Weather Stations Pressure Air Temp Water Temp Dewpoint Dewpoint Depression Visibility Wind Speed Wind Dir Waves Ship Positions

Akimaru No20

Last reported at 2018-Apr-22 05:57 UTC. Time now 2018-Apr-22 06:24 UTC.
Position N 35°05' E 136°52'.

Length 29 m.

Type: Tug. MMSI: 431400676.

Date/timePositionNaut miles runAvg speedWind from/ knotsBaromVisibWave heightAir tempDewpointWater temp
2018-Apr-22 05:57N 35°05' E 136°52'0 0.0
2018-Apr-22 05:21N 35°05' E 136°52'0 0.0
2018-Apr-22 04:51N 35°05' E 136°52'0 0.0
2018-Apr-22 04:27N 35°05' E 136°52'0 0.0
2018-Apr-22 03:57N 35°05' E 136°52'0 0.0
2018-Apr-22 03:27N 35°05' E 136°52'0 0.0
2018-Apr-22 02:57N 35°05' E 136°52'0 0.0
2018-Apr-22 02:27N 35°05' E 136°52'0 0.0
2018-Apr-22 01:57N 35°05' E 136°52'0 0.0
2018-Apr-22 01:27N 35°05' E 136°52'0 0.0
2018-Apr-22 00:51N 35°05' E 136°52'0 0.0
2018-Apr-22 00:27N 35°05' E 136°52'0 0.0
2018-Apr-21 23:57N 35°05' E 136°52'0 0.0
2018-Apr-21 23:27N 35°05' E 136°52'0 0.0
2018-Apr-21 22:57N 35°05' E 136°52'0 0.5
2018-Apr-21 22:30N 35°05' E 136°52'4 8.1
2018-Apr-21 22:00N 35°01' E 136°50'5 8.8
2018-Apr-21 21:29N 34°58' E 136°46'4 9.1
2018-Apr-21 21:00N 34°56' E 136°41'2 3.1
2018-Apr-21 20:30N 34°57' E 136°43'2 3.7
2018-Apr-21 20:00N 34°55' E 136°44'3 5.4
2018-Apr-21 19:30N 34°52' E 136°44'2 4.6
2018-Apr-21 19:00N 34°50' E 136°43'1 2.3
2018-Apr-21 18:30N 34°50' E 136°42'2 3.2
2018-Apr-21 17:59N 34°50' E 136°44'99 3.2
2018-Apr-20 11:10N 34°00' E 135°00'2 6.2
2018-Apr-20 10:53N 34°02' E 135°00'2 6.3
2018-Apr-20 10:30N 34°04' E 134°60'3 5.9
2018-Apr-20 10:00N 34°07' E 134°60'4 7.0
2018-Apr-20 09:30N 34°11' E 134°60'4 8.2
2018-Apr-20 08:58N 34°15' E 134°59'4 8.0
2018-Apr-20 08:30N 34°19' E 134°59'3 7.0
2018-Apr-20 08:00N 34°22' E 134°59'4 7.0
2018-Apr-20 07:30N 34°26' E 135°00'3 6.6
2018-Apr-20 07:00N 34°29' E 135°01'3 6.5
2018-Apr-20 06:30N 34°32' E 135°03'4 7.4
2018-Apr-20 06:00N 34°36' E 135°03'5 9.3
2018-Apr-20 05:30N 34°36' E 134°57'4 7.6
2018-Apr-20 04:58N 34°37' E 134°53'4 8.2
2018-Apr-20 04:29N 34°38' E 134°48'5 7.6
2018-Apr-20 03:51N 34°40' E 134°42'3 7.5
2018-Apr-20 03:30N 34°41' E 134°40'  
2018-Apr-13 22:23N 34°42' E 134°39'3 5.9
2018-Apr-13 21:57N 34°41' E 134°42'3 6.0
2018-Apr-13 21:27N 34°40' E 134°45'5 6.3
2018-Apr-13 20:43N 34°38' E 134°51'2 6.9
2018-Apr-13 20:30N 34°38' E 134°52'3 7.0
2018-Apr-13 20:00N 34°37' E 134°57'3 5.8
2018-Apr-13 19:28N 34°38' E 135°00'2 5.2
2018-Apr-13 19:00N 34°37' E 135°03'2 3.7
2018-Apr-13 18:30N 34°36' E 135°05'2 3.2
2018-Apr-13 18:00N 34°35' E 135°07'1 2.2
2018-Apr-13 17:30N 34°34' E 135°06'1 2.4
2018-Apr-13 17:00N 34°33' E 135°06'1 2.7
2018-Apr-13 16:29N 34°32' E 135°05'1 2.5
2018-Apr-13 16:00N 34°30' E 135°05'1 2.6
2018-Apr-13 15:30N 34°29' E 135°05'1 2.5
2018-Apr-13 15:00N 34°28' E 135°04'1 2.5
2018-Apr-13 14:30N 34°27' E 135°04'1 2.7
2018-Apr-13 13:59N 34°25' E 135°03'1 2.3
2018-Apr-13 13:30N 34°24' E 135°03'2 3.6
2018-Apr-13 12:59N 34°23' E 135°02'2 3.9
2018-Apr-13 12:30N 34°21' E 135°01'1 3.0
2018-Apr-13 12:00N 34°19' E 135°01'1 2.7
2018-Apr-13 11:30N 34°18' E 135°00'2 3.2
2018-Apr-13 11:00N 34°17' E 134°59'2 3.7
2018-Apr-13 10:30N 34°15' E 134°59'1 1.9
2018-Apr-13 09:59N 34°14' E 134°59'2 3.4
2018-Apr-13 09:29N 34°12' E 134°60'2 3.8
2018-Apr-13 08:58N 34°10' E 134°60'2 3.7
2018-Apr-13 08:29N 34°09' E 134°60'2 3.5
2018-Apr-13 08:00N 34°07' E 135°00'2 3.6
2018-Apr-13 07:30N 34°05' E 135°00'2 3.5
2018-Apr-13 07:00N 34°03' E 135°00'  

Dump ship's entire track history